createdAt,value
2022-11-24T00:00:58.132Z,99.99
2022-11-24T00:01:57.884Z,99.99
2022-11-24T00:02:57.889Z,99.99
2022-11-24T00:03:57.786Z,99.99
2022-11-24T00:04:57.751Z,99.99
2022-11-24T00:05:57.680Z,99.99
2022-11-24T00:06:58.173Z,99.99
2022-11-24T00:07:57.792Z,99.99
2022-11-24T00:08:58.063Z,99.99
2022-11-24T00:09:57.771Z,99.99
2022-11-24T00:10:57.776Z,99.99
2022-11-24T00:11:57.611Z,99.99
2022-11-24T00:12:57.708Z,99.99
2022-11-24T00:13:57.814Z,99.99
2022-11-24T00:14:57.609Z,99.99
2022-11-24T00:15:57.617Z,99.99
2022-11-24T00:16:57.846Z,99.99
2022-11-24T00:17:57.649Z,99.99
2022-11-24T00:18:57.673Z,99.99
2022-11-24T00:19:57.653Z,99.99
2022-11-24T00:20:57.689Z,99.99
2022-11-24T00:21:57.689Z,99.99
2022-11-24T00:22:57.813Z,99.99
2022-11-24T00:23:57.504Z,99.99
2022-11-24T00:24:57.687Z,99.99
2022-11-24T00:25:57.522Z,99.99
2022-11-24T00:26:57.652Z,99.99
2022-11-24T00:27:57.475Z,99.99
2022-11-24T00:28:57.665Z,99.99
2022-11-24T00:29:57.460Z,99.99
2022-11-24T00:30:57.779Z,99.99
2022-11-24T00:31:57.908Z,99.99
2022-11-24T00:32:57.461Z,99.99
2022-11-24T00:33:57.426Z,99.99
2022-11-24T00:34:57.393Z,99.99
2022-11-24T00:35:57.671Z,99.99
2022-11-24T00:36:57.481Z,99.99
2022-11-24T00:37:57.417Z,99.99
2022-11-24T00:38:57.650Z,99.99
2022-11-24T00:39:57.383Z,99.99
2022-11-24T00:40:57.502Z,99.99
2022-11-24T00:41:57.417Z,99.99
2022-11-24T00:42:57.369Z,99.99
2022-11-24T00:43:57.339Z,99.99
2022-11-24T00:44:57.281Z,99.99
2022-11-24T00:45:57.553Z,99.99
2022-11-24T00:46:57.453Z,99.99
2022-11-24T00:47:57.280Z,99.99
2022-11-24T00:48:57.353Z,99.99
2022-11-24T00:49:57.260Z,99.99
2022-11-24T00:50:57.261Z,99.99
2022-11-24T00:51:57.446Z,99.99
2022-11-24T00:52:57.241Z,99.99
2022-11-24T00:53:57.437Z,99.99
2022-11-24T00:54:57.269Z,99.99
2022-11-24T00:55:57.387Z,99.99
2022-11-24T00:56:57.377Z,99.99
2022-11-24T00:57:57.204Z,99.99
2022-11-24T00:58:57.242Z,99.99
2022-11-24T00:59:57.191Z,99.99
2022-11-24T01:00:57.241Z,99.99
2022-11-24T01:01:57.221Z,99.99
2022-11-24T01:02:57.224Z,99.99
2022-11-24T01:03:57.201Z,99.99
2022-11-24T01:04:57.116Z,99.99
2022-11-24T01:05:57.070Z,99.99
2022-11-24T01:06:57.089Z,99.99
2022-11-24T01:07:57.189Z,99.99
2022-11-24T01:08:57.169Z,99.99
2022-11-24T01:09:57.439Z,99.99
2022-11-24T01:10:57.167Z,99.99
2022-11-24T01:11:57.052Z,99.99
2022-11-24T01:12:57.210Z,99.99
2022-11-24T01:13:57.070Z,99.99
2022-11-24T01:14:57.018Z,99.99
2022-11-24T01:15:57.452Z,99.99
2022-11-24T01:16:57.071Z,99.99
2022-11-24T01:17:57.160Z,99.99
2022-11-24T01:18:57.033Z,99.99
2022-11-24T01:19:57.207Z,99.99
2022-11-24T01:20:57.269Z,99.99
2022-11-24T01:21:57.141Z,99.99
2022-11-24T01:22:57.118Z,99.99
2022-11-24T01:23:57.021Z,99.99
2022-11-24T01:24:57.104Z,99.99
2022-11-24T01:25:56.899Z,99.99
2022-11-24T01:26:56.883Z,99.99
2022-11-24T01:27:56.877Z,99.99
2022-11-24T01:28:56.853Z,99.99
2022-11-24T01:29:56.872Z,99.99
2022-11-24T01:30:56.930Z,99.99
2022-11-24T01:31:56.912Z,99.99
2022-11-24T01:32:56.822Z,99.99
2022-11-24T01:33:56.808Z,99.99
2022-11-24T01:34:56.914Z,99.99
2022-11-24T01:35:56.934Z,99.99
2022-11-24T01:36:57.013Z,99.99
2022-11-24T01:37:56.898Z,99.99
2022-11-24T01:38:56.799Z,99.99
2022-11-24T01:39:57.100Z,99.99
2022-11-24T01:40:56.799Z,99.99
2022-11-24T01:41:56.729Z,99.99
2022-11-24T01:42:56.772Z,99.99
2022-11-24T01:43:56.863Z,99.99
2022-11-24T01:44:56.740Z,99.99
2022-11-24T01:45:56.916Z,99.99
2022-11-24T01:46:56.805Z,99.99
2022-11-24T01:47:56.884Z,99.99
2022-11-24T01:48:56.877Z,99.99
2022-11-24T01:49:56.818Z,99.99
2022-11-24T01:50:56.975Z,99.99
2022-11-24T01:51:57.210Z,99.99
2022-11-24T01:52:56.684Z,99.99
2022-11-24T01:53:56.608Z,99.99
2022-11-24T01:54:56.836Z,99.99
2022-11-24T01:55:56.984Z,99.99
2022-11-24T01:56:56.602Z,99.99
2022-11-24T01:57:56.666Z,99.99
2022-11-24T01:58:56.570Z,99.99
2022-11-24T01:59:56.687Z,99.99
2022-11-24T02:00:56.653Z,99.99
2022-11-24T02:01:56.603Z,99.99
2022-11-24T02:02:56.811Z,99.99
2022-11-24T02:03:56.703Z,99.99
2022-11-24T02:04:56.683Z,99.99
2022-11-24T02:05:56.520Z,99.99
2022-11-24T02:06:56.635Z,99.99
2022-11-24T02:07:56.548Z,99.99
2022-11-24T02:08:56.565Z,99.99
2022-11-24T02:09:56.484Z,99.99
2022-11-24T02:10:56.681Z,99.99
2022-11-24T02:11:56.633Z,99.99
2022-11-24T02:12:56.443Z,99.99
2022-11-24T02:13:56.470Z,99.99
2022-11-24T02:14:56.608Z,99.99
2022-11-24T02:15:56.532Z,99.99
2022-11-24T02:16:56.580Z,99.99
2022-11-24T02:17:56.393Z,99.99
2022-11-24T02:18:56.630Z,99.99
2022-11-24T02:19:56.405Z,99.99
2022-11-24T02:20:56.363Z,99.99
2022-11-24T02:21:56.301Z,99.99
2022-11-24T02:22:56.331Z,99.99
2022-11-24T02:23:56.410Z,99.99
2022-11-24T02:24:56.639Z,99.99
2022-11-24T02:25:56.419Z,99.99
2022-11-24T02:26:56.299Z,99.99
2022-11-24T02:27:56.378Z,99.99
2022-11-24T02:28:56.279Z,99.99
2022-11-24T02:29:56.715Z,99.99
2022-11-24T02:30:56.413Z,99.99
2022-11-24T02:31:56.362Z,99.99
2022-11-24T02:32:56.387Z,99.99
2022-11-24T02:33:56.298Z,99.99
2022-11-24T02:34:56.415Z,99.99
2022-11-24T02:35:56.242Z,99.99
2022-11-24T02:36:56.470Z,99.99
2022-11-24T02:37:56.399Z,99.99
2022-11-24T02:38:56.772Z,99.99
2022-11-24T02:39:56.241Z,99.99
2022-11-24T02:40:56.142Z,99.99
2022-11-24T02:41:56.178Z,99.99
2022-11-24T02:42:56.398Z,99.99
2022-11-24T02:43:56.454Z,99.99
2022-11-24T02:44:56.432Z,99.99
2022-11-24T02:45:56.301Z,99.99
2022-11-24T02:46:56.281Z,99.99
2022-11-24T02:47:56.151Z,99.99
2022-11-24T02:48:56.219Z,99.99
2022-11-24T02:49:56.038Z,99.99
2022-11-24T02:50:56.018Z,99.99
2022-11-24T02:51:56.044Z,99.99
2022-11-24T02:52:56.203Z,99.99
2022-11-24T02:53:56.402Z,99.99
2022-11-24T02:54:56.208Z,99.99
2022-11-24T02:55:56.244Z,99.99
2022-11-24T02:56:56.009Z,99.99
2022-11-24T02:57:55.975Z,99.99
2022-11-24T02:58:56.218Z,99.99
2022-11-24T02:59:55.983Z,99.99
2022-11-24T03:00:56.172Z,99.99
2022-11-24T03:01:56.027Z,99.99
2022-11-24T03:02:56.116Z,99.99
2022-11-24T03:03:55.938Z,99.99
2022-11-24T03:04:56.166Z,99.99
2022-11-24T03:05:56.087Z,99.99
2022-11-24T03:06:55.907Z,99.99
2022-11-24T03:07:55.922Z,99.99
2022-11-24T03:08:56.273Z,99.99
2022-11-24T03:09:56.061Z,99.99
2022-11-24T03:10:56.030Z,99.99
2022-11-24T03:11:55.992Z,99.99
2022-11-24T03:12:55.846Z,99.99
2022-11-24T03:13:55.882Z,99.99
2022-11-24T03:14:55.809Z,99.99
2022-11-24T03:15:55.887Z,99.99
2022-11-24T03:16:56.316Z,99.99
2022-11-24T03:17:55.778Z,99.99
2022-11-24T03:18:55.921Z,99.99
2022-11-24T03:19:58.025Z,99.99
2022-11-24T03:20:55.767Z,99.99
2022-11-24T03:21:56.081Z,99.99
2022-11-24T03:22:56.781Z,99.99
2022-11-24T03:23:55.940Z,99.99
2022-11-24T03:24:55.928Z,99.99
2022-11-24T03:25:55.736Z,99.99
2022-11-24T03:26:55.733Z,99.99
2022-11-24T03:27:55.891Z,99.99
2022-11-24T03:28:55.706Z,99.99
2022-11-24T03:29:55.827Z,99.99
2022-11-24T03:30:55.770Z,99.99
2022-11-24T03:31:55.667Z,99.99
2022-11-24T03:32:55.723Z,99.99
2022-11-24T03:33:55.719Z,99.99
2022-11-24T03:34:55.699Z,99.99
2022-11-24T03:35:56.027Z,99.99
2022-11-24T03:36:55.799Z,99.99
2022-11-24T03:37:55.557Z,99.99
2022-11-24T03:38:55.569Z,99.99
2022-11-24T03:39:55.757Z,99.99
2022-11-24T03:40:55.664Z,99.99
2022-11-24T03:41:55.655Z,99.99
2022-11-24T03:42:55.810Z,99.99
2022-11-24T03:43:55.805Z,99.99
2022-11-24T03:44:55.517Z,99.99
2022-11-24T03:45:55.603Z,99.99
2022-11-24T03:46:55.853Z,99.99
2022-11-24T03:47:55.507Z,99.99
2022-11-24T03:48:55.553Z,99.99
2022-11-24T03:49:55.718Z,99.99
2022-11-24T03:50:55.586Z,99.99
2022-11-24T03:51:55.962Z,99.99
2022-11-24T03:52:55.536Z,99.99
2022-11-24T03:53:55.386Z,99.99
2022-11-24T03:54:55.828Z,99.99
2022-11-24T03:55:55.511Z,99.99
2022-11-24T03:56:55.394Z,99.99
2022-11-24T03:57:55.958Z,99.99
2022-11-24T03:58:55.398Z,99.99
2022-11-24T03:59:55.513Z,99.99
2022-11-24T04:00:55.668Z,99.99
2022-11-24T04:01:55.687Z,99.99
2022-11-24T04:02:55.536Z,99.99
2022-11-24T04:03:55.530Z,99.99
2022-11-24T04:04:55.533Z,99.99
2022-11-24T04:05:55.553Z,99.99
2022-11-24T04:06:55.459Z,99.99
2022-11-24T04:07:55.319Z,99.99
2022-11-24T04:08:55.359Z,99.99
2022-11-24T04:09:55.560Z,99.99
2022-11-24T04:10:55.788Z,99.99
2022-11-24T04:11:55.484Z,99.99
2022-11-24T04:12:55.553Z,99.99
2022-11-24T04:13:55.331Z,99.99
2022-11-24T04:14:55.232Z,99.99
2022-11-24T04:15:55.233Z,99.99
2022-11-24T04:16:55.303Z,99.99
2022-11-24T04:17:55.255Z,99.99
2022-11-24T04:18:56.118Z,99.99
2022-11-24T04:19:55.316Z,99.99
2022-11-24T04:20:55.175Z,99.99
2022-11-24T04:21:55.484Z,99.99
2022-11-24T04:22:55.133Z,99.99
2022-11-24T04:23:55.106Z,99.99
2022-11-24T04:24:55.117Z,99.99
2022-11-24T04:25:55.266Z,99.99
2022-11-24T04:26:55.290Z,99.99
2022-11-24T04:27:55.067Z,99.99
2022-11-24T04:28:55.279Z,99.99
2022-11-24T04:29:55.064Z,99.99
2022-11-24T04:30:55.315Z,99.99
2022-11-24T04:31:55.338Z,99.99
2022-11-24T04:32:55.370Z,99.99
2022-11-24T04:33:55.081Z,99.99
2022-11-24T04:34:55.011Z,99.99
2022-11-24T04:35:55.125Z,99.99
2022-11-24T04:36:55.040Z,99.99
2022-11-24T04:37:55.385Z,99.99
2022-11-24T04:39:23.989Z,99.99
2022-11-24T04:39:55.280Z,99.99
2022-11-24T04:40:55.068Z,99.99
2022-11-24T04:41:55.093Z,99.99
2022-11-24T04:42:55.737Z,99.99
2022-11-24T04:43:55.518Z,99.99
2022-11-24T04:44:55.087Z,99.99
2022-11-24T04:45:55.209Z,99.99
2022-11-24T04:46:55.018Z,99.99
2022-11-24T04:47:55.217Z,99.99
2022-11-24T04:48:54.928Z,99.99
2022-11-24T04:49:54.860Z,99.99
2022-11-24T04:50:55.247Z,99.99
2022-11-24T04:51:55.267Z,99.99
2022-11-24T04:52:54.824Z,99.99
2022-11-24T04:53:55.088Z,99.99
2022-11-24T04:54:55.118Z,99.99
2022-11-24T04:55:54.814Z,99.99
2022-11-24T04:56:55.004Z,99.99
2022-11-24T04:57:54.926Z,99.99
2022-11-24T04:58:54.757Z,99.99
2022-11-24T04:59:54.980Z,99.99
2022-11-24T05:00:54.775Z,99.99
2022-11-24T05:01:54.944Z,99.99
2022-11-24T05:02:54.810Z,99.99
2022-11-24T05:03:55.045Z,99.99
2022-11-24T05:04:54.822Z,99.99
2022-11-24T05:05:54.984Z,99.99
2022-11-24T05:06:54.839Z,99.99
2022-11-24T05:07:54.818Z,99.99
2022-11-24T05:08:54.649Z,99.99
2022-11-24T05:09:59.329Z,99.99
2022-11-24T05:10:54.849Z,99.99
2022-11-24T05:11:54.778Z,99.99
2022-11-24T05:12:55.191Z,99.99
2022-11-24T05:13:54.857Z,99.99
2022-11-24T05:14:54.731Z,99.99
2022-11-24T05:15:54.893Z,99.99
2022-11-24T05:16:54.732Z,99.99
2022-11-24T05:17:54.585Z,99.99
2022-11-24T05:18:54.665Z,99.99
2022-11-24T05:19:54.933Z,99.99
2022-11-24T05:20:54.581Z,99.99
2022-11-24T05:21:54.572Z,99.99
2022-11-24T05:22:54.666Z,99.99
2022-11-24T05:23:54.692Z,99.99
2022-11-24T05:24:54.530Z,99.99
2022-11-24T05:25:54.656Z,99.99
2022-11-24T05:26:54.519Z,99.99
2022-11-24T05:27:54.718Z,99.99
2022-11-24T05:28:54.790Z,99.99
2022-11-24T05:29:54.492Z,99.99
2022-11-24T05:30:54.536Z,99.99
2022-11-24T05:31:54.442Z,99.99
2022-11-24T05:32:54.491Z,99.99
2022-11-24T05:33:54.571Z,99.99
2022-11-24T05:34:54.418Z,99.99
2022-11-24T05:35:54.525Z,99.99
2022-11-24T05:36:54.495Z,99.99
2022-11-24T05:37:54.589Z,99.99
2022-11-24T05:38:54.698Z,99.99
2022-11-24T05:39:54.471Z,99.99
2022-11-24T05:40:54.542Z,99.99
2022-11-24T05:41:54.350Z,99.99
2022-11-24T05:42:54.585Z,99.99
2022-11-24T05:43:54.319Z,99.99
2022-11-24T05:44:54.307Z,99.99
2022-11-24T05:45:54.300Z,99.99
2022-11-24T05:46:54.345Z,99.99
2022-11-24T05:47:54.266Z,99.99
2022-11-24T05:48:54.399Z,99.99
2022-11-24T05:49:54.298Z,99.99
2022-11-24T05:50:54.386Z,99.99
2022-11-24T05:51:54.453Z,99.99
2022-11-24T05:52:54.248Z,99.99
2022-11-24T05:53:54.411Z,99.99
2022-11-24T05:54:54.304Z,99.99
2022-11-24T05:55:54.236Z,99.99
2022-11-24T05:56:54.213Z,99.99
2022-11-24T05:57:54.148Z,99.99
2022-11-24T05:58:54.368Z,99.99
2022-11-24T05:59:54.181Z,99.99
2022-11-24T06:00:54.209Z,99.99
2022-11-24T06:01:54.347Z,99.99
2022-11-24T06:02:54.932Z,99.99
2022-11-24T06:03:54.169Z,99.99
2022-11-24T06:04:54.290Z,99.99
2022-11-24T06:05:54.161Z,99.99
2022-11-24T06:06:54.255Z,99.99
2022-11-24T06:07:54.242Z,99.99
2022-11-24T06:08:54.467Z,99.99
2022-11-24T06:09:54.109Z,99.99
2022-11-24T06:10:54.232Z,99.99
2022-11-24T06:11:54.778Z,99.99
2022-11-24T06:12:54.174Z,99.99
2022-11-24T06:13:54.352Z,99.99
2022-11-24T06:14:54.097Z,99.99
2022-11-24T06:15:53.975Z,99.99
2022-11-24T06:16:54.363Z,99.99
2022-11-24T06:17:54.114Z,99.99
2022-11-24T06:18:53.999Z,99.99
2022-11-24T06:19:53.962Z,99.99
2022-11-24T06:21:09.807Z,99.99
2022-11-24T06:21:54.080Z,99.99
2022-11-24T06:22:54.104Z,99.99
2022-11-24T06:23:53.947Z,99.99
2022-11-24T06:24:54.056Z,99.93
2022-11-24T06:25:53.954Z,99.99
2022-11-24T06:26:53.987Z,99.99
2022-11-24T06:27:53.901Z,99.82
2022-11-24T06:28:53.938Z,99.82
2022-11-24T06:29:54.018Z,99.93
2022-11-24T06:30:53.952Z,99.93
2022-11-24T06:31:53.949Z,99.82
2022-11-24T06:32:53.837Z,99.62
2022-11-24T06:33:53.908Z,99.72
2022-11-24T06:34:53.842Z,99.72
2022-11-24T06:35:53.852Z,99.62
2022-11-24T06:36:54.155Z,99.51
2022-11-24T06:37:53.810Z,99.51
2022-11-24T06:38:53.828Z,99.51
2022-11-24T06:39:53.875Z,99.62
2022-11-24T06:40:53.993Z,99.72
2022-11-24T06:41:53.767Z,99.56
2022-11-24T06:42:54.060Z,99.87
2022-11-24T06:43:53.899Z,99.97
2022-11-24T06:44:53.937Z,99.87
2022-11-24T06:45:53.943Z,99.77
2022-11-24T06:46:53.701Z,99.66
2022-11-24T06:47:53.688Z,99.87
2022-11-24T06:48:53.736Z,99.97
2022-11-24T06:49:54.012Z,99.77
2022-11-24T06:50:53.672Z,99.87
2022-11-24T06:51:53.734Z,99.77
2022-11-24T06:52:53.676Z,99.56
2022-11-24T06:53:54.086Z,99.66
2022-11-24T06:54:53.662Z,99.99
2022-11-24T06:55:53.612Z,99.99
2022-11-24T06:56:53.627Z,99.87
2022-11-24T06:57:53.609Z,99.97
2022-11-24T06:58:53.842Z,99.87
2022-11-24T06:59:53.766Z,99.77
2022-11-24T07:00:53.977Z,99.77
2022-11-24T07:01:53.560Z,99.46
2022-11-24T07:02:53.668Z,99.35
2022-11-24T07:03:53.614Z,99.46
2022-11-24T07:04:53.520Z,99.71
2022-11-24T07:05:53.535Z,99.81
2022-11-24T07:06:53.540Z,99.81
2022-11-24T07:07:53.755Z,99.81
2022-11-24T07:08:53.502Z,99.99
2022-11-24T07:09:53.675Z,99.99
2022-11-24T07:10:53.475Z,99.99
2022-11-24T07:11:53.546Z,99.99
2022-11-24T07:12:53.497Z,99.99
2022-11-24T07:13:58.295Z,99.87
2022-11-24T07:14:53.437Z,99.56
2022-11-24T07:15:53.597Z,99.25
2022-11-24T07:16:53.770Z,99.10
2022-11-24T07:17:53.492Z,99.21
2022-11-24T07:18:53.585Z,99.00
2022-11-24T07:19:53.388Z,99.31
2022-11-24T07:20:53.418Z,99.21
2022-11-24T07:21:53.677Z,98.90
2022-11-24T07:22:53.351Z,98.38
2022-11-24T07:23:53.354Z,98.49
2022-11-24T07:24:53.493Z,98.18
2022-11-24T07:25:53.440Z,98.28
2022-11-24T07:26:53.388Z,97.97
2022-11-24T07:27:53.523Z,97.97
2022-11-24T07:28:53.273Z,97.97
2022-11-24T07:29:53.419Z,97.87
2022-11-24T07:30:53.720Z,97.97
2022-11-24T07:31:53.710Z,98.07
2022-11-24T07:32:53.266Z,98.28
2022-11-24T07:33:53.275Z,97.77
2022-11-24T07:34:53.262Z,97.36
2022-11-24T07:35:53.379Z,97.15
2022-11-24T07:36:53.371Z,96.90
2022-11-24T07:37:53.355Z,96.08
2022-11-24T07:38:53.190Z,96.18
2022-11-24T07:39:53.187Z,96.28
2022-11-24T07:40:53.496Z,96.08
2022-11-24T07:41:53.492Z,95.67
2022-11-24T07:42:53.663Z,96.18
2022-11-24T07:43:53.202Z,96.39
2022-11-24T07:44:53.108Z,96.28
2022-11-24T07:45:53.188Z,96.18
2022-11-24T07:46:53.156Z,95.97
2022-11-24T07:47:53.321Z,95.36
2022-11-24T07:48:53.304Z,95.67
2022-11-24T07:49:53.107Z,95.87
2022-11-24T07:50:56.061Z,96.28
2022-11-24T07:51:53.083Z,96.59
2022-11-24T07:52:53.392Z,96.59
2022-11-24T07:53:53.087Z,96.08
2022-11-24T07:54:53.244Z,95.77
2022-11-24T07:55:53.044Z,95.36
2022-11-24T07:56:53.038Z,95.46
2022-11-24T07:57:53.135Z,95.15
2022-11-24T07:58:53.284Z,95.05
2022-11-24T07:59:53.131Z,95.15
2022-11-24T08:00:53.188Z,95.05
2022-11-24T08:01:53.076Z,94.95
2022-11-24T08:02:53.027Z,93.40
2022-11-24T08:03:53.094Z,94.02
2022-11-24T08:04:52.950Z,93.98
2022-11-24T08:06:16.043Z,94.08
2022-11-24T08:06:52.972Z,93.87
2022-11-24T08:07:52.978Z,93.98
2022-11-24T08:08:52.912Z,94.59
2022-11-24T08:09:52.912Z,94.08
2022-11-24T08:10:53.019Z,94.39
2022-11-24T08:11:52.904Z,93.98
2022-11-24T08:12:53.042Z,93.16
2022-11-24T08:13:53.183Z,92.44
2022-11-24T08:14:52.858Z,92.74
2022-11-24T08:15:53.137Z,92.13
2022-11-24T08:16:53.096Z,93.26
2022-11-24T08:17:52.795Z,93.67
2022-11-24T08:18:52.817Z,93.26
2022-11-24T08:19:52.799Z,93.36
2022-11-24T08:20:52.789Z,93.46
2022-11-24T08:21:52.809Z,93.46
2022-11-24T08:22:52.772Z,93.16
2022-11-24T08:23:52.749Z,92.95
2022-11-24T08:24:52.791Z,93.26
2022-11-24T08:25:56.739Z,93.16
2022-11-24T08:26:52.728Z,92.95
2022-11-24T08:27:52.752Z,92.33
2022-11-24T08:28:52.713Z,92.54
2022-11-24T08:29:52.865Z,92.33
2022-11-24T08:30:52.713Z,92.23
2022-11-24T08:31:52.719Z,92.54
2022-11-24T08:32:52.665Z,92.03
2022-11-24T08:33:52.627Z,92.54
2022-11-24T08:34:59.492Z,92.64
2022-11-24T08:35:52.635Z,92.23
2022-11-24T08:36:52.822Z,92.64
2022-11-24T08:37:52.633Z,93.16
2022-11-24T08:38:52.586Z,93.16
2022-11-24T08:39:52.831Z,93.05
2022-11-24T08:40:52.547Z,93.05
2022-11-24T08:41:52.536Z,93.57
2022-11-24T08:42:52.602Z,93.26
2022-11-24T08:43:52.577Z,93.36
2022-11-24T08:44:58.856Z,93.87
2022-11-24T08:45:52.699Z,93.77
2022-11-24T08:46:52.530Z,94.08
2022-11-24T08:47:52.547Z,94.70
2022-11-24T08:48:52.610Z,94.90
2022-11-24T08:49:52.806Z,94.80
2022-11-24T08:50:52.729Z,95.31
2022-11-24T08:51:52.474Z,95.31
2022-11-24T08:52:52.875Z,94.59
2022-11-24T08:53:52.672Z,94.59
2022-11-24T08:54:52.478Z,94.70
2022-11-24T08:55:52.730Z,94.29
2022-11-24T08:56:52.427Z,94.29
2022-11-24T08:57:52.533Z,94.39
2022-11-24T08:58:52.757Z,94.45
2022-11-24T08:59:52.370Z,94.65
2022-11-24T09:00:52.372Z,94.55
2022-11-24T09:01:52.604Z,94.34
2022-11-24T09:02:52.469Z,93.83
2022-11-24T09:03:52.545Z,94.14
2022-11-24T09:04:52.471Z,93.52
2022-11-24T09:05:53.080Z,92.40
2022-11-24T09:06:52.932Z,92.97
2022-11-24T09:07:52.379Z,93.17
2022-11-24T09:08:52.413Z,93.48
2022-11-24T09:09:52.296Z,93.79
2022-11-24T09:10:52.358Z,93.89
2022-11-24T09:11:52.289Z,92.97
2022-11-24T09:12:52.493Z,92.86
2022-11-24T09:13:52.403Z,93.27
2022-11-24T09:14:52.213Z,92.66
2022-11-24T09:15:52.663Z,92.76
2022-11-24T09:16:52.710Z,93.13
2022-11-24T09:17:52.260Z,93.44
2022-11-24T09:18:52.586Z,93.13
2022-11-24T09:19:52.242Z,91.90
2022-11-24T09:20:52.194Z,92.00
2022-11-24T09:21:52.142Z,92.10
2022-11-24T09:22:52.143Z,91.28
2022-11-24T09:23:52.296Z,91.69
2022-11-24T09:24:52.340Z,91.18
2022-11-24T09:25:52.266Z,92.21
2022-11-24T09:26:52.141Z,91.69
2022-11-24T09:27:52.387Z,91.59
2022-11-24T09:28:52.080Z,91.96
2022-11-24T09:29:52.257Z,91.65
2022-11-24T09:30:52.387Z,91.44
2022-11-24T09:31:52.087Z,91.44
2022-11-24T09:32:52.375Z,91.24
2022-11-24T09:33:52.211Z,91.44
2022-11-24T09:34:52.232Z,90.83
2022-11-24T09:35:52.015Z,90.52
2022-11-24T09:36:52.142Z,91.55
2022-11-24T09:37:52.147Z,91.75
2022-11-24T09:38:51.977Z,91.55
2022-11-24T09:39:51.984Z,91.24
2022-11-24T09:40:52.147Z,91.65
2022-11-24T09:41:52.291Z,91.03
2022-11-24T09:42:53.732Z,91.44
2022-11-24T09:43:52.137Z,91.03
2022-11-24T09:44:52.384Z,91.65
2022-11-24T09:46:07.446Z,90.93
2022-11-24T09:46:52.139Z,91.55
2022-11-24T09:47:51.971Z,92.16
2022-11-24T09:48:51.994Z,91.59
2022-11-24T09:49:51.911Z,92.36
2022-11-24T09:50:51.988Z,92.06
2022-11-24T09:51:51.869Z,91.86
2022-11-24T09:52:51.834Z,92.06
2022-11-24T09:53:51.886Z,92.36
2022-11-24T09:54:51.837Z,92.47
2022-11-24T09:55:51.995Z,92.06
2022-11-24T09:56:51.825Z,91.59
2022-11-24T09:57:51.798Z,92.21
2022-11-24T09:58:51.943Z,92.00
2022-11-24T09:59:51.796Z,92.61
2022-11-24T10:00:52.056Z,92.61
2022-11-24T10:01:51.851Z,91.80
2022-11-24T10:02:51.764Z,92.10
2022-11-24T10:03:51.929Z,92.51
2022-11-24T10:04:51.790Z,92.98
2022-11-24T10:05:51.706Z,92.78
2022-11-24T10:06:51.748Z,92.16
2022-11-24T10:07:51.952Z,91.55
2022-11-24T10:08:51.709Z,91.86
2022-11-24T10:09:51.665Z,90.83
2022-11-24T10:10:51.683Z,91.86
2022-11-24T10:11:51.964Z,92.06
2022-11-24T10:12:51.660Z,91.35
2022-11-24T10:13:51.623Z,91.86
2022-11-24T10:14:51.939Z,91.75
2022-11-24T10:15:51.703Z,91.55
2022-11-24T10:16:51.785Z,91.55
2022-11-24T10:17:51.641Z,91.03
2022-11-24T10:18:51.755Z,91.35
2022-11-24T10:19:51.569Z,91.61
2022-11-24T10:20:51.657Z,91.20
2022-11-24T10:21:51.748Z,92.02
2022-11-24T10:22:51.548Z,90.70
2022-11-24T10:23:51.741Z,89.25
2022-11-24T10:24:51.549Z,87.53
2022-11-24T10:25:51.704Z,84.22
2022-11-24T10:26:51.475Z,84.74
2022-11-24T10:27:51.719Z,84.94
2022-11-24T10:28:51.667Z,85.10
2022-11-24T10:29:51.539Z,85.24
2022-11-24T10:30:51.532Z,84.22
2022-11-24T10:31:51.576Z,83.98
2022-11-24T10:32:51.420Z,83.73
2022-11-24T10:33:51.588Z,85.16
2022-11-24T10:34:51.536Z,84.14
2022-11-24T10:35:51.615Z,82.31
2022-11-24T10:36:51.451Z,83.02
2022-11-24T10:37:51.368Z,83.23
2022-11-24T10:38:51.582Z,83.12
2022-11-24T10:39:55.850Z,81.70
2022-11-24T10:40:58.791Z,81.35
2022-11-24T10:41:51.543Z,80.27
2022-11-24T10:42:51.511Z,82.00
2022-11-24T10:43:51.325Z,81.94
2022-11-24T10:44:51.316Z,81.63
2022-11-24T10:45:51.422Z,82.49
2022-11-24T10:46:51.432Z,83.81
2022-11-24T10:47:51.454Z,83.34
2022-11-24T10:48:51.449Z,83.95
2022-11-24T10:49:51.275Z,83.81
2022-11-24T10:50:51.336Z,84.22
2022-11-24T10:51:51.245Z,84.12
2022-11-24T10:52:51.219Z,83.61
2022-11-24T10:53:51.304Z,83.92
2022-11-24T10:54:51.382Z,83.78
2022-11-24T10:55:51.415Z,83.16
2022-11-24T10:56:51.353Z,82.49
2022-11-24T10:57:51.390Z,82.89
2022-11-24T10:58:51.406Z,83.61
2022-11-24T10:59:51.227Z,84.06
2022-11-24T11:00:51.296Z,84.26
2022-11-24T11:01:51.330Z,84.16
2022-11-24T11:02:51.522Z,84.16
2022-11-24T11:03:51.164Z,84.36
2022-11-24T11:04:51.228Z,84.09
2022-11-24T11:05:51.195Z,83.69
2022-11-24T11:06:51.176Z,85.06
2022-11-24T11:07:51.230Z,85.26
2022-11-24T11:08:51.136Z,85.10
2022-11-24T11:09:51.299Z,85.50
2022-11-24T11:10:51.178Z,85.50
2022-11-24T11:11:51.183Z,85.75
2022-11-24T11:12:51.147Z,85.64
2022-11-24T11:13:51.024Z,86.26
2022-11-24T11:14:51.062Z,86.57
2022-11-24T11:15:51.229Z,87.29
2022-11-24T11:16:51.091Z,87.38
2022-11-24T11:19:47.370Z,86.77
2022-11-24T11:19:58.417Z,87.14
2022-11-24T11:20:29.451Z,87.55
2022-11-24T11:21:29.552Z,87.55
2022-11-24T11:22:29.796Z,87.55
2022-11-24T11:23:29.374Z,87.45
2022-11-24T11:24:29.540Z,86.85
2022-11-24T11:25:29.466Z,84.30
2022-11-24T11:26:29.543Z,85.67
2022-11-24T11:27:29.541Z,86.29
2022-11-24T11:28:29.367Z,85.88
2022-11-24T11:31:29.356Z,86.18
2022-11-24T11:34:30.449Z,85.67
2022-11-24T11:35:29.346Z,85.97
2022-11-24T11:36:29.476Z,85.77
2022-11-24T11:37:29.267Z,85.16
2022-11-24T11:38:29.387Z,85.47
2022-11-24T11:39:29.220Z,85.83
2022-11-24T11:40:29.583Z,85.63
2022-11-24T11:41:29.610Z,84.61
2022-11-24T11:43:00.754Z,84.81
2022-11-24T11:43:29.210Z,84.71
2022-11-24T11:44:29.176Z,85.32
2022-11-24T11:45:29.262Z,85.02
2022-11-24T11:46:29.295Z,85.02
2022-11-24T11:47:29.100Z,84.67
2022-11-24T11:48:32.407Z,84.33
2022-11-24T11:49:29.142Z,84.08
2022-11-24T11:50:29.218Z,81.43
2022-11-24T11:51:29.542Z,82.51
2022-11-24T11:52:29.108Z,81.29
2022-11-24T11:53:29.063Z,81.90
2022-11-24T11:54:29.113Z,80.98
2022-11-24T11:55:29.031Z,80.47
2022-11-24T11:56:29.191Z,80.51
2022-11-24T11:57:29.121Z,81.53
2022-11-24T11:58:29.183Z,82.59
2022-11-24T11:59:29.074Z,83.40
2022-11-24T12:00:29.170Z,82.59
2022-11-24T12:01:29.177Z,81.57
2022-11-24T12:02:29.156Z,82.28
2022-11-24T12:03:29.573Z,82.79
2022-11-24T12:04:29.336Z,83.00
2022-11-24T12:05:28.929Z,82.69
2022-11-24T12:06:28.938Z,83.53
2022-11-24T12:07:29.030Z,82.33
2022-11-24T12:08:28.900Z,80.80
2022-11-24T12:09:29.152Z,80.60
2022-11-24T12:10:29.351Z,79.79
2022-11-24T12:11:29.156Z,78.93
2022-11-24T12:12:29.089Z,78.45
2022-11-24T12:13:28.851Z,77.50
2022-11-24T12:14:28.928Z,75.43
2022-11-24T12:15:28.856Z,74.72
2022-11-24T12:16:28.893Z,74.82
2022-11-24T12:17:29.167Z,75.02
2022-11-24T12:18:56.085Z,74.35
2022-11-24T12:19:29.205Z,74.99
2022-11-24T12:20:28.775Z,76.52
2022-11-24T12:21:28.836Z,77.13
2022-11-24T12:22:28.768Z,77.23
2022-11-24T12:23:28.776Z,77.44
2022-11-24T12:24:28.903Z,76.92
2022-11-24T12:25:28.747Z,77.33
2022-11-24T12:26:28.716Z,76.21
2022-11-24T12:27:28.746Z,77.06
2022-11-24T12:28:28.792Z,76.65
2022-11-24T12:29:28.723Z,76.45
2022-11-24T12:30:28.685Z,76.08
2022-11-24T12:31:28.790Z,76.08
2022-11-24T12:32:28.742Z,77.71
2022-11-24T12:33:28.777Z,77.10
2022-11-24T12:34:28.796Z,77.85
2022-11-24T12:35:28.656Z,78.56
2022-11-24T12:36:28.672Z,78.16
2022-11-24T12:37:28.641Z,78.87
2022-11-24T12:38:28.725Z,78.60
2022-11-24T12:39:28.762Z,78.30
2022-11-24T12:40:28.658Z,80.33
2022-11-24T12:41:44.006Z,80.23
2022-11-24T12:42:28.640Z,79.00
2022-11-24T12:43:28.765Z,79.11
2022-11-24T12:44:28.922Z,79.72
2022-11-24T12:45:28.915Z,79.52
2022-11-24T12:46:28.669Z,79.45
2022-11-24T12:47:28.509Z,78.43
2022-11-24T12:48:28.608Z,78.12
2022-11-24T12:49:28.603Z,78.37
2022-11-24T12:50:28.519Z,79.08
2022-11-24T12:51:28.567Z,80.10
2022-11-24T12:52:28.667Z,80.10
2022-11-24T12:53:28.473Z,79.80
2022-11-24T12:54:28.503Z,80.71
2022-11-24T12:55:28.665Z,80.44
2022-11-24T12:56:28.722Z,81.16
2022-11-24T12:57:28.419Z,81.46